sensor_id;sensor_type;location;lat;lon;timestamp;temperature;humidity
20566;DHT22;10441;50.884;12.064;2023-02-15T00:00:18;0.10;99.90
20566;DHT22;10441;50.884;12.064;2023-02-15T00:02:45;0.10;99.90
20566;DHT22;10441;50.884;12.064;2023-02-15T00:05:12;0.20;99.90
20566;DHT22;10441;50.884;12.064;2023-02-15T00:07:40;0.10;99.90
20566;DHT22;10441;50.884;12.064;2023-02-15T00:10:08;0.00;99.90
20566;DHT22;10441;50.884;12.064;2023-02-15T00:12:36;-0.10;99.90
20566;DHT22;10441;50.884;12.064;2023-02-15T00:15:03;-0.20;99.90
20566;DHT22;10441;50.884;12.064;2023-02-15T00:17:30;-0.30;99.90
20566;DHT22;10441;50.884;12.064;2023-02-15T00:19:57;0.10;99.90
20566;DHT22;10441;50.884;12.064;2023-02-15T00:22:24;0.20;99.90
20566;DHT22;10441;50.884;12.064;2023-02-15T00:24:53;0.20;99.90
20566;DHT22;10441;50.884;12.064;2023-02-15T00:27:19;0.20;99.90
20566;DHT22;10441;50.884;12.064;2023-02-15T00:29:46;0.20;99.90
20566;DHT22;10441;50.884;12.064;2023-02-15T00:32:13;0.10;99.90
20566;DHT22;10441;50.884;12.064;2023-02-15T00:34:40;0.00;99.90
20566;DHT22;10441;50.884;12.064;2023-02-15T00:37:07;0.00;99.90
20566;DHT22;10441;50.884;12.064;2023-02-15T00:39:34;-0.10;99.90
20566;DHT22;10441;50.884;12.064;2023-02-15T00:42:02;-0.10;99.90
20566;DHT22;10441;50.884;12.064;2023-02-15T00:44:29;-0.10;99.90
20566;DHT22;10441;50.884;12.064;2023-02-15T00:46:56;-0.20;99.90
20566;DHT22;10441;50.884;12.064;2023-02-15T00:49:23;-0.20;99.90
20566;DHT22;10441;50.884;12.064;2023-02-15T00:51:50;-0.10;99.90
20566;DHT22;10441;50.884;12.064;2023-02-15T00:54:16;-0.10;99.90
20566;DHT22;10441;50.884;12.064;2023-02-15T00:56:43;-0.20;99.90
20566;DHT22;10441;50.884;12.064;2023-02-15T00:59:11;-0.40;99.90
20566;DHT22;10441;50.884;12.064;2023-02-15T01:01:38;-0.40;99.90
20566;DHT22;10441;50.884;12.064;2023-02-15T01:04:05;-0.30;99.90
20566;DHT22;10441;50.884;12.064;2023-02-15T01:06:32;-0.40;99.90
20566;DHT22;10441;50.884;12.064;2023-02-15T01:08:59;-0.30;99.90
20566;DHT22;10441;50.884;12.064;2023-02-15T01:11:26;-0.30;99.90
20566;DHT22;10441;50.884;12.064;2023-02-15T01:13:53;-0.30;99.90
20566;DHT22;10441;50.884;12.064;2023-02-15T01:16:23;-0.50;99.90
20566;DHT22;10441;50.884;12.064;2023-02-15T01:18:52;-0.60;99.90
20566;DHT22;10441;50.884;12.064;2023-02-15T01:21:20;-0.70;99.90
20566;DHT22;10441;50.884;12.064;2023-02-15T01:23:48;-0.70;99.90
20566;DHT22;10441;50.884;12.064;2023-02-15T01:26:15;-0.70;99.90
20566;DHT22;10441;50.884;12.064;2023-02-15T01:28:41;-0.80;99.90
20566;DHT22;10441;50.884;12.064;2023-02-15T01:31:09;-0.70;99.90
20566;DHT22;10441;50.884;12.064;2023-02-15T01:33:39;-0.80;99.90
20566;DHT22;10441;50.884;12.064;2023-02-15T01:36:06;-0.60;99.90
20566;DHT22;10441;50.884;12.064;2023-02-15T01:38:34;-0.60;99.90
20566;DHT22;10441;50.884;12.064;2023-02-15T01:41:01;-0.60;99.90
20566;DHT22;10441;50.884;12.064;2023-02-15T01:43:43;-0.80;99.90
20566;DHT22;10441;50.884;12.064;2023-02-15T01:46:10;-0.80;99.90
20566;DHT22;10441;50.884;12.064;2023-02-15T01:48:42;-0.60;99.90
20566;DHT22;10441;50.884;12.064;2023-02-15T01:51:10;-0.60;99.90
20566;DHT22;10441;50.884;12.064;2023-02-15T01:53:38;-0.40;99.90
20566;DHT22;10441;50.884;12.064;2023-02-15T01:56:08;-0.40;99.90
20566;DHT22;10441;50.884;12.064;2023-02-15T01:58:36;-0.30;99.90
20566;DHT22;10441;50.884;12.064;2023-02-15T02:01:03;-0.40;99.90
20566;DHT22;10441;50.884;12.064;2023-02-15T02:03:35;-0.30;99.90
20566;DHT22;10441;50.884;12.064;2023-02-15T02:06:04;-0.30;99.90
20566;DHT22;10441;50.884;12.064;2023-02-15T02:08:31;-0.30;99.90
20566;DHT22;10441;50.884;12.064;2023-02-15T02:10:58;-0.30;99.90
20566;DHT22;10441;50.884;12.064;2023-02-15T02:13:25;-0.30;99.90
20566;DHT22;10441;50.884;12.064;2023-02-15T02:15:53;-0.20;99.90
20566;DHT22;10441;50.884;12.064;2023-02-15T02:18:29;-0.20;99.90
20566;DHT22;10441;50.884;12.064;2023-02-15T02:24:01;-0.30;99.90
20566;DHT22;10441;50.884;12.064;2023-02-15T02:29:32;-0.20;99.90
20566;DHT22;10441;50.884;12.064;2023-02-15T02:32:21;-0.40;99.90
20566;DHT22;10441;50.884;12.064;2023-02-15T02:34:53;-0.60;99.90
20566;DHT22;10441;50.884;12.064;2023-02-15T02:37:24;-0.70;99.90
20566;DHT22;10441;50.884;12.064;2023-02-15T02:39:55;-0.70;99.90
20566;DHT22;10441;50.884;12.064;2023-02-15T02:42:25;-0.90;99.90
20566;DHT22;10441;50.884;12.064;2023-02-15T02:44:54;-0.90;99.90
20566;DHT22;10441;50.884;12.064;2023-02-15T02:47:26;-0.80;99.90
20566;DHT22;10441;50.884;12.064;2023-02-15T02:49:59;-0.90;99.90
20566;DHT22;10441;50.884;12.064;2023-02-15T02:52:37;-0.80;99.90
20566;DHT22;10441;50.884;12.064;2023-02-15T02:55:05;-0.90;99.90
20566;DHT22;10441;50.884;12.064;2023-02-15T02:57:33;-0.80;99.90
20566;DHT22;10441;50.884;12.064;2023-02-15T03:00:03;-0.70;99.90
20566;DHT22;10441;50.884;12.064;2023-02-15T03:02:35;-0.80;99.90
20566;DHT22;10441;50.884;12.064;2023-02-15T03:05:06;-0.70;99.90
20566;DHT22;10441;50.884;12.064;2023-02-15T03:07:34;-1.00;99.90
20566;DHT22;10441;50.884;12.064;2023-02-15T03:10:02;-0.80;99.90
20566;DHT22;10441;50.884;12.064;2023-02-15T03:12:32;-0.90;99.90
20566;DHT22;10441;50.884;12.064;2023-02-15T03:15:00;-1.00;99.90
20566;DHT22;10441;50.884;12.064;2023-02-15T03:17:29;-1.00;99.90
20566;DHT22;10441;50.884;12.064;2023-02-15T03:20:03;-0.90;99.90
20566;DHT22;10441;50.884;12.064;2023-02-15T03:22:34;-1.00;99.90
20566;DHT22;10441;50.884;12.064;2023-02-15T03:25:04;-1.10;99.90
20566;DHT22;10441;50.884;12.064;2023-02-15T03:27:32;-0.90;99.90
20566;DHT22;10441;50.884;12.064;2023-02-15T03:29:59;-1.10;99.90
20566;DHT22;10441;50.884;12.064;2023-02-15T03:32:27;-1.10;99.90
20566;DHT22;10441;50.884;12.064;2023-02-15T03:34:55;-1.10;99.90
20566;DHT22;10441;50.884;12.064;2023-02-15T03:37:23;-1.00;99.90
20566;DHT22;10441;50.884;12.064;2023-02-15T03:39:54;-0.90;99.90
20566;DHT22;10441;50.884;12.064;2023-02-15T03:42:43;-1.00;99.90
20566;DHT22;10441;50.884;12.064;2023-02-15T03:45:12;-1.10;99.90
20566;DHT22;10441;50.884;12.064;2023-02-15T03:47:41;-1.20;99.90
20566;DHT22;10441;50.884;12.064;2023-02-15T03:50:10;-1.30;99.90
20566;DHT22;10441;50.884;12.064;2023-02-15T03:52:53;-1.50;99.90
20566;DHT22;10441;50.884;12.064;2023-02-15T03:55:22;-1.40;99.90
20566;DHT22;10441;50.884;12.064;2023-02-15T03:57:49;-1.50;99.90
20566;DHT22;10441;50.884;12.064;2023-02-15T04:00:34;-1.50;99.90
20566;DHT22;10441;50.884;12.064;2023-02-15T04:03:22;-1.50;99.90
20566;DHT22;10441;50.884;12.064;2023-02-15T04:05:51;-1.60;99.90
20566;DHT22;10441;50.884;12.064;2023-02-15T04:08:17;-1.60;99.90
20566;DHT22;10441;50.884;12.064;2023-02-15T04:10:46;-1.60;99.90
20566;DHT22;10441;50.884;12.064;2023-02-15T04:13:18;-1.40;99.90
20566;DHT22;10441;50.884;12.064;2023-02-15T04:15:44;-1.20;99.90
20566;DHT22;10441;50.884;12.064;2023-02-15T04:18:29;-1.10;99.90
20566;DHT22;10441;50.884;12.064;2023-02-15T04:21:13;-1.20;99.90
20566;DHT22;10441;50.884;12.064;2023-02-15T04:23:58;-1.20;99.90
20566;DHT22;10441;50.884;12.064;2023-02-15T04:26:43;-1.50;99.90
20566;DHT22;10441;50.884;12.064;2023-02-15T04:29:11;-1.40;99.90
20566;DHT22;10441;50.884;12.064;2023-02-15T04:31:38;-1.50;99.90
20566;DHT22;10441;50.884;12.064;2023-02-15T04:34:05;-1.60;99.90
20566;DHT22;10441;50.884;12.064;2023-02-15T04:36:32;-1.70;99.90
20566;DHT22;10441;50.884;12.064;2023-02-15T04:38:58;-1.80;99.90
20566;DHT22;10441;50.884;12.064;2023-02-15T04:41:25;-1.80;99.90
20566;DHT22;10441;50.884;12.064;2023-02-15T04:43:54;-1.60;99.90
20566;DHT22;10441;50.884;12.064;2023-02-15T04:46:21;-1.70;99.90
20566;DHT22;10441;50.884;12.064;2023-02-15T04:48:48;-1.70;99.90
20566;DHT22;10441;50.884;12.064;2023-02-15T04:51:15;-1.60;99.90
20566;DHT22;10441;50.884;12.064;2023-02-15T04:53:42;-1.40;99.90
20566;DHT22;10441;50.884;12.064;2023-02-15T04:56:09;-1.40;99.90
20566;DHT22;10441;50.884;12.064;2023-02-15T04:58:36;-1.20;99.90
20566;DHT22;10441;50.884;12.064;2023-02-15T05:01:07;-1.20;99.90
20566;DHT22;10441;50.884;12.064;2023-02-15T05:03:35;-1.10;99.90
20566;DHT22;10441;50.884;12.064;2023-02-15T05:06:01;-1.30;99.90
20566;DHT22;10441;50.884;12.064;2023-02-15T05:08:28;-1.20;99.90
20566;DHT22;10441;50.884;12.064;2023-02-15T05:10:55;-1.20;99.90
20566;DHT22;10441;50.884;12.064;2023-02-15T05:13:23;-1.20;99.90
20566;DHT22;10441;50.884;12.064;2023-02-15T05:15:50;-1.10;99.90
20566;DHT22;10441;50.884;12.064;2023-02-15T05:18:18;-1.20;99.90
20566;DHT22;10441;50.884;12.064;2023-02-15T05:20:46;-1.30;99.90
20566;DHT22;10441;50.884;12.064;2023-02-15T05:23:13;-1.30;99.90
20566;DHT22;10441;50.884;12.064;2023-02-15T05:25:40;-1.30;99.90
20566;DHT22;10441;50.884;12.064;2023-02-15T05:28:26;-1.30;99.90
20566;DHT22;10441;50.884;12.064;2023-02-15T05:30:58;-1.30;99.90
20566;DHT22;10441;50.884;12.064;2023-02-15T05:33:28;-1.50;99.90
20566;DHT22;10441;50.884;12.064;2023-02-15T05:35:55;-1.50;99.90
20566;DHT22;10441;50.884;12.064;2023-02-15T05:38:22;-1.50;99.90
20566;DHT22;10441;50.884;12.064;2023-02-15T05:40:50;-1.40;99.90
20566;DHT22;10441;50.884;12.064;2023-02-15T05:43:18;-1.40;99.90
20566;DHT22;10441;50.884;12.064;2023-02-15T05:45:47;-1.40;99.90
20566;DHT22;10441;50.884;12.064;2023-02-15T05:48:14;-1.40;99.90
20566;DHT22;10441;50.884;12.064;2023-02-15T05:50:42;-1.40;99.90
20566;DHT22;10441;50.884;12.064;2023-02-15T05:53:09;-1.40;99.90
20566;DHT22;10441;50.884;12.064;2023-02-15T05:55:37;-1.30;99.90
20566;DHT22;10441;50.884;12.064;2023-02-15T05:58:04;-1.30;99.90
20566;DHT22;10441;50.884;12.064;2023-02-15T06:00:30;-1.40;99.90
20566;DHT22;10441;50.884;12.064;2023-02-15T06:02:57;-1.50;99.90
20566;DHT22;10441;50.884;12.064;2023-02-15T06:05:24;-1.50;99.90
20566;DHT22;10441;50.884;12.064;2023-02-15T06:07:52;-1.50;99.90
20566;DHT22;10441;50.884;12.064;2023-02-15T06:10:19;-1.50;99.90
20566;DHT22;10441;50.884;12.064;2023-02-15T06:12:46;-1.40;99.90
20566;DHT22;10441;50.884;12.064;2023-02-15T06:15:13;-1.30;99.90
20566;DHT22;10441;50.884;12.064;2023-02-15T06:17:40;-1.30;99.90
20566;DHT22;10441;50.884;12.064;2023-02-15T06:20:08;-1.20;99.90
20566;DHT22;10441;50.884;12.064;2023-02-15T06:22:35;-1.20;99.90
20566;DHT22;10441;50.884;12.064;2023-02-15T06:25:03;-1.10;99.90
20566;DHT22;10441;50.884;12.064;2023-02-15T06:27:30;-1.10;99.90
20566;DHT22;10441;50.884;12.064;2023-02-15T06:29:57;-1.20;99.90
20566;DHT22;10441;50.884;12.064;2023-02-15T06:32:23;-1.20;99.90
20566;DHT22;10441;50.884;12.064;2023-02-15T06:34:50;-1.10;99.90
20566;DHT22;10441;50.884;12.064;2023-02-15T06:37:17;-1.10;99.90
20566;DHT22;10441;50.884;12.064;2023-02-15T06:39:44;-0.90;99.90
20566;DHT22;10441;50.884;12.064;2023-02-15T06:42:12;-0.80;99.90
20566;DHT22;10441;50.884;12.064;2023-02-15T06:44:39;-0.90;99.90
20566;DHT22;10441;50.884;12.064;2023-02-15T06:47:06;-0.90;99.90
20566;DHT22;10441;50.884;12.064;2023-02-15T06:49:33;-0.80;99.90
20566;DHT22;10441;50.884;12.064;2023-02-15T06:52:00;-0.70;99.90
20566;DHT22;10441;50.884;12.064;2023-02-15T06:54:27;-0.60;99.90
20566;DHT22;10441;50.884;12.064;2023-02-15T06:56:54;-0.60;99.90
20566;DHT22;10441;50.884;12.064;2023-02-15T06:59:22;-0.50;99.90
20566;DHT22;10441;50.884;12.064;2023-02-15T07:01:49;-0.30;99.90
20566;DHT22;10441;50.884;12.064;2023-02-15T07:04:16;0.00;99.90
20566;DHT22;10441;50.884;12.064;2023-02-15T07:06:43;0.20;99.90
20566;DHT22;10441;50.884;12.064;2023-02-15T07:09:09;0.30;99.90
20566;DHT22;10441;50.884;12.064;2023-02-15T07:11:37;0.70;99.90
20566;DHT22;10441;50.884;12.064;2023-02-15T07:14:22;0.90;99.90
20566;DHT22;10441;50.884;12.064;2023-02-15T07:16:49;1.20;99.90
20566;DHT22;10441;50.884;12.064;2023-02-15T07:19:16;1.20;99.90
20566;DHT22;10441;50.884;12.064;2023-02-15T07:21:43;1.10;99.90
20566;DHT22;10441;50.884;12.064;2023-02-15T07:24:11;1.00;99.90
20566;DHT22;10441;50.884;12.064;2023-02-15T07:26:38;1.40;99.90
20566;DHT22;10441;50.884;12.064;2023-02-15T07:29:05;1.40;99.90
20566;DHT22;10441;50.884;12.064;2023-02-15T07:31:36;1.50;99.90
20566;DHT22;10441;50.884;12.064;2023-02-15T07:34:02;1.40;99.90
20566;DHT22;10441;50.884;12.064;2023-02-15T07:36:29;1.50;99.90
20566;DHT22;10441;50.884;12.064;2023-02-15T07:38:56;1.70;99.90
20566;DHT22;10441;50.884;12.064;2023-02-15T07:41:23;2.10;99.90
20566;DHT22;10441;50.884;12.064;2023-02-15T07:43:50;2.10;99.90
20566;DHT22;10441;50.884;12.064;2023-02-15T07:46:17;2.50;99.90
20566;DHT22;10441;50.884;12.064;2023-02-15T07:48:46;2.60;99.90
20566;DHT22;10441;50.884;12.064;2023-02-15T07:51:13;2.50;99.90
20566;DHT22;10441;50.884;12.064;2023-02-15T07:53:40;2.70;99.90
20566;DHT22;10441;50.884;12.064;2023-02-15T07:56:08;2.80;99.90
20566;DHT22;10441;50.884;12.064;2023-02-15T07:58:35;3.10;99.90
20566;DHT22;10441;50.884;12.064;2023-02-15T08:01:18;3.10;99.90
20566;DHT22;10441;50.884;12.064;2023-02-15T08:03:47;3.20;99.90
20566;DHT22;10441;50.884;12.064;2023-02-15T08:06:14;3.40;99.90
20566;DHT22;10441;50.884;12.064;2023-02-15T08:08:41;3.60;99.90
20566;DHT22;10441;50.884;12.064;2023-02-15T08:11:14;3.50;99.90
20566;DHT22;10441;50.884;12.064;2023-02-15T08:13:55;3.50;99.90
20566;DHT22;10441;50.884;12.064;2023-02-15T08:16:25;3.50;99.90
20566;DHT22;10441;50.884;12.064;2023-02-15T08:18:54;3.70;99.90
20566;DHT22;10441;50.884;12.064;2023-02-15T08:21:21;4.20;99.90
20566;DHT22;10441;50.884;12.064;2023-02-15T08:23:48;4.20;99.90
20566;DHT22;10441;50.884;12.064;2023-02-15T08:26:15;4.50;99.90
20566;DHT22;10441;50.884;12.064;2023-02-15T08:28:42;4.80;99.90
20566;DHT22;10441;50.884;12.064;2023-02-15T08:31:10;5.10;99.90
20566;DHT22;10441;50.884;12.064;2023-02-15T08:33:38;5.40;99.90
20566;DHT22;10441;50.884;12.064;2023-02-15T08:36:07;5.40;99.90
20566;DHT22;10441;50.884;12.064;2023-02-15T08:38:34;5.80;99.90
20566;DHT22;10441;50.884;12.064;2023-02-15T08:41:08;6.10;99.90
20566;DHT22;10441;50.884;12.064;2023-02-15T08:43:35;6.50;99.90
20566;DHT22;10441;50.884;12.064;2023-02-15T08:46:02;6.80;99.90
20566;DHT22;10441;50.884;12.064;2023-02-15T08:48:29;7.20;99.90
20566;DHT22;10441;50.884;12.064;2023-02-15T08:50:56;7.20;99.90
20566;DHT22;10441;50.884;12.064;2023-02-15T08:53:24;7.60;99.90
20566;DHT22;10441;50.884;12.064;2023-02-15T08:55:55;8.10;99.90
20566;DHT22;10441;50.884;12.064;2023-02-15T08:58:22;8.40;99.90
20566;DHT22;10441;50.884;12.064;2023-02-15T09:00:49;9.30;99.90
20566;DHT22;10441;50.884;12.064;2023-02-15T09:03:16;10.00;99.90
20566;DHT22;10441;50.884;12.064;2023-02-15T09:05:43;9.90;99.90
20566;DHT22;10441;50.884;12.064;2023-02-15T09:08:10;10.50;99.90
20566;DHT22;10441;50.884;12.064;2023-02-15T09:10:38;10.20;99.90
20566;DHT22;10441;50.884;12.064;2023-02-15T09:13:05;10.00;99.90
20566;DHT22;10441;50.884;12.064;2023-02-15T09:15:32;11.20;99.90
20566;DHT22;10441;50.884;12.064;2023-02-15T09:17:59;10.40;99.90
20566;DHT22;10441;50.884;12.064;2023-02-15T09:20:31;11.00;99.90
20566;DHT22;10441;50.884;12.064;2023-02-15T09:22:58;11.30;99.90
20566;DHT22;10441;50.884;12.064;2023-02-15T09:25:25;10.30;99.90
20566;DHT22;10441;50.884;12.064;2023-02-15T09:27:54;11.00;99.90
20566;DHT22;10441;50.884;12.064;2023-02-15T09:30:21;11.40;99.90
20566;DHT22;10441;50.884;12.064;2023-02-15T09:32:48;12.00;99.90
20566;DHT22;10441;50.884;12.064;2023-02-15T09:35:14;12.00;99.90
20566;DHT22;10441;50.884;12.064;2023-02-15T09:37:42;12.10;99.90
20566;DHT22;10441;50.884;12.064;2023-02-15T09:40:09;12.10;99.90
20566;DHT22;10441;50.884;12.064;2023-02-15T09:42:47;12.90;99.90
20566;DHT22;10441;50.884;12.064;2023-02-15T09:50:52;12.70;99.90
20566;DHT22;10441;50.884;12.064;2023-02-15T09:53:25;13.20;99.90
20566;DHT22;10441;50.884;12.064;2023-02-15T09:55:55;13.40;99.90
20566;DHT22;10441;50.884;12.064;2023-02-15T09:58:29;13.50;99.90
20566;DHT22;10441;50.884;12.064;2023-02-15T10:01:00;14.30;99.90
20566;DHT22;10441;50.884;12.064;2023-02-15T10:03:39;13.80;99.90
20566;DHT22;10441;50.884;12.064;2023-02-15T10:06:17;14.00;99.90
20566;DHT22;10441;50.884;12.064;2023-02-15T10:08:58;13.30;99.90
20566;DHT22;10441;50.884;12.064;2023-02-15T10:11:28;13.30;99.90
20566;DHT22;10441;50.884;12.064;2023-02-15T10:16:56;15.60;99.90
20566;DHT22;10441;50.884;12.064;2023-02-15T10:19:32;15.70;99.90
20566;DHT22;10441;50.884;12.064;2023-02-15T10:22:13;15.80;99.90
20566;DHT22;10441;50.884;12.064;2023-02-15T10:24:58;15.70;99.90
20566;DHT22;10441;50.884;12.064;2023-02-15T10:27:33;15.30;99.90
20566;DHT22;10441;50.884;12.064;2023-02-15T10:30:08;14.40;99.90
20566;DHT22;10441;50.884;12.064;2023-02-15T10:32:40;14.20;99.90
20566;DHT22;10441;50.884;12.064;2023-02-15T10:35:13;15.40;99.90
20566;DHT22;10441;50.884;12.064;2023-02-15T10:37:52;16.50;99.90
20566;DHT22;10441;50.884;12.064;2023-02-15T10:40:28;16.50;99.90
20566;DHT22;10441;50.884;12.064;2023-02-15T10:43:14;16.30;99.90
20566;DHT22;10441;50.884;12.064;2023-02-15T10:45:52;16.60;99.90
20566;DHT22;10441;50.884;12.064;2023-02-15T10:48:39;16.30;99.90
20566;DHT22;10441;50.884;12.064;2023-02-15T10:51:16;15.80;99.90
20566;DHT22;10441;50.884;12.064;2023-02-15T10:54:04;14.80;99.90
20566;DHT22;10441;50.884;12.064;2023-02-15T10:56:38;14.30;99.90
20566;DHT22;10441;50.884;12.064;2023-02-15T10:59:10;14.10;99.90
20566;DHT22;10441;50.884;12.064;2023-02-15T11:01:40;14.10;99.90
20566;DHT22;10441;50.884;12.064;2023-02-15T11:04:10;14.20;99.90
20566;DHT22;10441;50.884;12.064;2023-02-15T11:06:41;13.80;99.90
20566;DHT22;10441;50.884;12.064;2023-02-15T11:09:14;13.70;99.90
20566;DHT22;10441;50.884;12.064;2023-02-15T11:11:44;13.70;99.90
20566;DHT22;10441;50.884;12.064;2023-02-15T11:14:14;14.00;99.90
20566;DHT22;10441;50.884;12.064;2023-02-15T11:16:42;14.30;99.90
20566;DHT22;10441;50.884;12.064;2023-02-15T11:19:11;14.70;99.90
20566;DHT22;10441;50.884;12.064;2023-02-15T11:21:40;15.00;99.90
20566;DHT22;10441;50.884;12.064;2023-02-15T11:24:10;15.10;99.90
20566;DHT22;10441;50.884;12.064;2023-02-15T11:26:41;14.60;99.90
20566;DHT22;10441;50.884;12.064;2023-02-15T11:29:10;14.50;99.90
20566;DHT22;10441;50.884;12.064;2023-02-15T11:31:41;14.40;99.90
20566;DHT22;10441;50.884;12.064;2023-02-15T11:34:16;14.40;99.90
20566;DHT22;10441;50.884;12.064;2023-02-15T11:36:44;14.00;99.90
20566;DHT22;10441;50.884;12.064;2023-02-15T11:39:12;13.70;99.90
20566;DHT22;10441;50.884;12.064;2023-02-15T11:41:43;14.00;99.50
20566;DHT22;10441;50.884;12.064;2023-02-15T11:44:12;13.80;99.90
20566;DHT22;10441;50.884;12.064;2023-02-15T11:46:40;13.70;99.20
20566;DHT22;10441;50.884;12.064;2023-02-15T11:49:09;14.00;99.10
20566;DHT22;10441;50.884;12.064;2023-02-15T11:51:45;14.20;98.80
20566;DHT22;10441;50.884;12.064;2023-02-15T11:54:12;14.40;98.80
20566;DHT22;10441;50.884;12.064;2023-02-15T11:56:39;14.10;98.30
20566;DHT22;10441;50.884;12.064;2023-02-15T11:59:12;14.30;99.50
20566;DHT22;10441;50.884;12.064;2023-02-15T12:01:44;14.40;99.50
20566;DHT22;10441;50.884;12.064;2023-02-15T12:04:18;14.60;99.90
20566;DHT22;10441;50.884;12.064;2023-02-15T12:06:48;14.00;99.90
20566;DHT22;10441;50.884;12.064;2023-02-15T12:09:17;14.40;99.90
20566;DHT22;10441;50.884;12.064;2023-02-15T12:11:45;14.80;99.60
20566;DHT22;10441;50.884;12.064;2023-02-15T12:14:14;14.70;99.90
20566;DHT22;10441;50.884;12.064;2023-02-15T12:16:43;14.90;98.80
20566;DHT22;10441;50.884;12.064;2023-02-15T12:19:36;15.30;99.90
20566;DHT22;10441;50.884;12.064;2023-02-15T12:22:06;15.30;99.00
20566;DHT22;10441;50.884;12.064;2023-02-15T12:24:37;15.20;99.20
20566;DHT22;10441;50.884;12.064;2023-02-15T12:27:15;15.10;97.90
20566;DHT22;10441;50.884;12.064;2023-02-15T12:29:47;15.40;98.50
20566;DHT22;10441;50.884;12.064;2023-02-15T12:32:18;15.40;99.90
20566;DHT22;10441;50.884;12.064;2023-02-15T12:34:46;15.60;97.60
20566;DHT22;10441;50.884;12.064;2023-02-15T12:37:17;15.60;97.60
20566;DHT22;10441;50.884;12.064;2023-02-15T12:39:53;15.60;99.00
20566;DHT22;10441;50.884;12.064;2023-02-15T12:42:22;15.40;97.20
20566;DHT22;10441;50.884;12.064;2023-02-15T12:44:57;15.40;97.70
20566;DHT22;10441;50.884;12.064;2023-02-15T12:47:25;15.70;97.80
20566;DHT22;10441;50.884;12.064;2023-02-15T12:50:08;15.90;96.30
20566;DHT22;10441;50.884;12.064;2023-02-15T12:52:43;16.00;95.70
20566;DHT22;10441;50.884;12.064;2023-02-15T12:55:19;15.70;98.80
20566;DHT22;10441;50.884;12.064;2023-02-15T12:57:46;16.40;96.30
20566;DHT22;10441;50.884;12.064;2023-02-15T13:00:29;16.50;94.40
20566;DHT22;10441;50.884;12.064;2023-02-15T13:02:58;16.70;94.80
20566;DHT22;10441;50.884;12.064;2023-02-15T13:05:34;15.80;94.00
20566;DHT22;10441;50.884;12.064;2023-02-15T13:08:08;16.30;94.50
20566;DHT22;10441;50.884;12.064;2023-02-15T13:10:39;16.50;94.00
20566;DHT22;10441;50.884;12.064;2023-02-15T13:13:10;16.50;93.60
20566;DHT22;10441;50.884;12.064;2023-02-15T13:15:41;16.60;92.80
20566;DHT22;10441;50.884;12.064;2023-02-15T13:18:15;16.80;92.60
20566;DHT22;10441;50.884;12.064;2023-02-15T13:20:43;16.50;92.00
20566;DHT22;10441;50.884;12.064;2023-02-15T13:23:15;16.20;92.40
20566;DHT22;10441;50.884;12.064;2023-02-15T13:25:47;16.10;91.50
20566;DHT22;10441;50.884;12.064;2023-02-15T13:28:16;17.60;91.60
20566;DHT22;10441;50.884;12.064;2023-02-15T13:30:45;16.60;92.40
20566;DHT22;10441;50.884;12.064;2023-02-15T13:33:20;16.80;92.60
20566;DHT22;10441;50.884;12.064;2023-02-15T13:36:02;17.00;90.80
20566;DHT22;10441;50.884;12.064;2023-02-15T13:38:51;17.00;91.90
20566;DHT22;10441;50.884;12.064;2023-02-15T13:41:24;17.40;91.20
20566;DHT22;10441;50.884;12.064;2023-02-15T13:44:03;17.40;88.30
20566;DHT22;10441;50.884;12.064;2023-02-15T13:46:49;17.90;92.00
20566;DHT22;10441;50.884;12.064;2023-02-15T13:49:32;17.60;91.40
20566;DHT22;10441;50.884;12.064;2023-02-15T13:52:12;16.60;89.30
20566;DHT22;10441;50.884;12.064;2023-02-15T13:54:57;16.50;89.40
20566;DHT22;10441;50.884;12.064;2023-02-15T13:57:36;16.60;89.80
20566;DHT22;10441;50.884;12.064;2023-02-15T14:00:12;16.40;89.30
20566;DHT22;10441;50.884;12.064;2023-02-15T14:02:51;16.30;88.20
20566;DHT22;10441;50.884;12.064;2023-02-15T14:05:29;16.90;90.10
20566;DHT22;10441;50.884;12.064;2023-02-15T14:08:08;17.20;92.50
20566;DHT22;10441;50.884;12.064;2023-02-15T14:10:45;17.50;90.40
20566;DHT22;10441;50.884;12.064;2023-02-15T14:13:41;17.50;90.40
20566;DHT22;10441;50.884;12.064;2023-02-15T14:16:19;17.40;86.10
20566;DHT22;10441;50.884;12.064;2023-02-15T14:18:51;17.00;87.10
20566;DHT22;10441;50.884;12.064;2023-02-15T14:21:25;16.50;88.30
20566;DHT22;10441;50.884;12.064;2023-02-15T14:24:20;16.70;87.80
20566;DHT22;10441;50.884;12.064;2023-02-15T14:26:54;16.00;86.20
20566;DHT22;10441;50.884;12.064;2023-02-15T14:29:25;15.20;90.20
20566;DHT22;10441;50.884;12.064;2023-02-15T14:31:55;14.40;90.50
20566;DHT22;10441;50.884;12.064;2023-02-15T14:34:25;13.60;91.80
20566;DHT22;10441;50.884;12.064;2023-02-15T14:36:54;13.30;91.70
20566;DHT22;10441;50.884;12.064;2023-02-15T14:39:25;13.30;92.20
20566;DHT22;10441;50.884;12.064;2023-02-15T14:42:11;13.40;91.40
20566;DHT22;10441;50.884;12.064;2023-02-15T14:44:40;13.30;92.90
20566;DHT22;10441;50.884;12.064;2023-02-15T14:47:11;12.60;93.40
20566;DHT22;10441;50.884;12.064;2023-02-15T14:49:46;12.40;95.30
20566;DHT22;10441;50.884;12.064;2023-02-15T14:52:16;12.10;94.80
20566;DHT22;10441;50.884;12.064;2023-02-15T14:54:55;12.00;95.20
20566;DHT22;10441;50.884;12.064;2023-02-15T14:57:25;12.00;94.40
20566;DHT22;10441;50.884;12.064;2023-02-15T14:59:55;12.00;94.70
20566;DHT22;10441;50.884;12.064;2023-02-15T15:02:27;11.90;95.00
20566;DHT22;10441;50.884;12.064;2023-02-15T15:05:01;11.70;96.00
20566;DHT22;10441;50.884;12.064;2023-02-15T15:07:38;11.40;97.00
20566;DHT22;10441;50.884;12.064;2023-02-15T15:10:23;11.20;99.50
20566;DHT22;10441;50.884;12.064;2023-02-15T15:12:54;10.80;99.90
20566;DHT22;10441;50.884;12.064;2023-02-15T15:15:34;10.60;99.90
20566;DHT22;10441;50.884;12.064;2023-02-15T15:18:05;10.30;99.90
20566;DHT22;10441;50.884;12.064;2023-02-15T15:20:44;10.40;99.90
20566;DHT22;10441;50.884;12.064;2023-02-15T15:23:39;10.50;99.90
20566;DHT22;10441;50.884;12.064;2023-02-15T15:26:26;10.30;99.90
20566;DHT22;10441;50.884;12.064;2023-02-15T15:28:59;10.20;99.90
20566;DHT22;10441;50.884;12.064;2023-02-15T15:31:36;10.20;99.90
20566;DHT22;10441;50.884;12.064;2023-02-15T15:34:38;10.00;99.90
20566;DHT22;10441;50.884;12.064;2023-02-15T15:37:44;9.70;99.90
20566;DHT22;10441;50.884;12.064;2023-02-15T15:40:53;9.60;99.90
20566;DHT22;10441;50.884;12.064;2023-02-15T15:47:08;9.70;99.90
20566;DHT22;10441;50.884;12.064;2023-02-15T15:49:40;9.50;99.90
20566;DHT22;10441;50.884;12.064;2023-02-15T15:52:12;9.20;99.90
20566;DHT22;10441;50.884;12.064;2023-02-15T15:54:43;9.10;99.90
20566;DHT22;10441;50.884;12.064;2023-02-15T15:57:15;9.10;99.90
20566;DHT22;10441;50.884;12.064;2023-02-15T15:59:45;9.50;99.90
20566;DHT22;10441;50.884;12.064;2023-02-15T16:02:15;9.10;99.90